Time;durP1;ratioP1;P1;durP2;ratioP2;P2;SDS_P1;SDS_P2;PMS_P1;PMS_P2;Temp;Humidity;BMP_temperature;BMP_pressure;BME280_temperature;BME280_humidity;BME280_pressure;Samples;Min_cycle;Max_cycle;Signal;HPM_P1;HPM_P2
2022/04/06 00:00:15;;;;;;;1.5;1;;;;;;;8.66;89.71582;932.1797;;;;
2022/04/06 00:02:43;;;;;;;0.9;0.9;;;;;;;8.79;87.91309;932.1973;;;;
2022/04/06 00:05:09;;;;;;;1;0.9;;;;;;;8.87;87.64551;932.1425;;;;
2022/04/06 00:07:35;;;;;;;0.7;0.7;;;;;;;8.85;88.01758;932.2717;;;;
2022/04/06 00:10:00;;;;;;;1;0.8;;;;;;;8.79;88.20898;932.1853;;;;
2022/04/06 00:12:30;;;;;;;1.3;0.9;;;;;;;8.86;88.07617;932.2234;;;;
2022/04/06 00:14:55;;;;;;;1.4;1.3;;;;;;;8.84;88.03613;932.139;;;;
2022/04/06 00:17:21;;;;;;;2.8;1.3;;;;;;;8.79;87.93848;932.1234;;;;
2022/04/06 00:19:45;;;;;;;1.2;1;;;;;;;8.66;89.00195;932.1147;;;;
2022/04/06 00:22:14;;;;;;;2.4;1.2;;;;;;;8.69;89.05273;932.1141;;;;
2022/04/06 00:24:39;;;;;;;1.2;1.1;;;;;;;8.69;89.05273;932.1213;;;;
2022/04/06 00:27:05;;;;;;;1.6;1.2;;;;;;;8.79;88.45898;932.1576;;;;
2022/04/06 00:29:31;;;;;;;1.1;0.9;;;;;;;8.72;88.7627;932.0588;;;;
2022/04/06 00:31:56;;;;;;;1.2;0.9;;;;;;;8.71;88.59082;931.9619;;;;
2022/04/06 00:35:28;;;;;;;1.4;1.3;;;;;;;8.74;88.1748;931.9747;;;;
2022/04/06 00:36:49;;;;;;;2;1.6;;;;;;;8.72;88.48047;931.8873;;;;
2022/04/06 00:39:17;;;;;;;5.1;2.9;;;;;;;8.59;89.64453;931.9028;;;;
2022/04/06 00:41:42;;;;;;;3.9;2.5;;;;;;;8.66;89.47754;931.9194;;;;
2022/04/06 00:44:09;;;;;;;4.3;2.8;;;;;;;8.59;89.63477;931.902;;;;
2022/04/06 00:46:34;;;;;;;3.5;2.6;;;;;;;8.64;89.19141;931.967;;;;
2022/04/06 00:49:01;;;;;;;3.5;2.1;;;;;;;8.74;88.49316;931.8977;;;;
2022/04/06 00:51:27;;;;;;;1.4;1.3;;;;;;;8.51;88.96973;931.9191;;;;
2022/04/06 00:53:53;;;;;;;1.2;1.1;;;;;;;8.43;89.67871;931.8883;;;;
2022/04/06 00:56:18;;;;;;;1.1;1;;;;;;;8.24;90.65137;931.8571;;;;
2022/04/06 00:58:44;;;;;;;1.5;1.2;;;;;;;8.14;91.55078;931.9226;;;;
2022/04/06 01:01:09;;;;;;;1.7;1;;;;;;;8.14;91.5957;931.8892;;;;
2022/04/06 01:03:36;;;;;;;1.1;1;;;;;;;7.9;92.44238;931.9281;;;;
2022/04/06 01:06:01;;;;;;;1.2;0.9;;;;;;;7.76;93.20313;931.9328;;;;
2022/04/06 01:08:30;;;;;;;1.7;1.2;;;;;;;7.85;93.05664;931.8627;;;;
2022/04/06 01:10:55;;;;;;;1.8;1.2;;;;;;;7.98;92.03809;931.8931;;;;
2022/04/06 01:13:23;;;;;;;1.9;1.2;;;;;;;7.94;92.2002;931.8636;;;;
2022/04/06 01:15:48;;;;;;;2.7;1.5;;;;;;;8.04;91.9043;931.8488;;;;
2022/04/06 01:18:17;;;;;;;3.1;1.7;;;;;;;8.02;91.18262;931.8113;;;;
2022/04/06 01:20:42;;;;;;;2.4;1.4;;;;;;;7.72;91.50586;931.8477;;;;
2022/04/06 01:23:08;;;;;;;2;1.1;;;;;;;7.67;92.34668;931.8187;;;;
2022/04/06 01:25:38;;;;;;;2.8;1.7;;;;;;;7.74;91.77051;931.7861;;;;
2022/04/06 01:27:58;;;;;;;2.2;1.4;;;;;;;7.8;91.44531;931.7922;;;;
2022/04/06 01:30:25;;;;;;;1.8;1.4;;;;;;;7.83;90.95215;931.8055;;;;
2022/04/06 01:32:50;;;;;;;2.2;1.4;;;;;;;7.77;91.5166;931.7356;;;;
2022/04/06 01:35:19;;;;;;;2;1.5;;;;;;;7.72;91.58691;931.6188;;;;
2022/04/06 01:37:44;;;;;;;1.7;1.4;;;;;;;7.74;91.42969;931.6308;;;;
2022/04/06 01:40:12;;;;;;;1.1;1;;;;;;;7.71;91.36719;931.6186;;;;
2022/04/06 01:42:37;;;;;;;1.5;1;;;;;;;7.5;92.33203;931.5966;;;;
2022/04/06 01:45:09;;;;;;;1.5;1.3;;;;;;;7.32;93.11133;931.6127;;;;
2022/04/06 01:47:40;;;;;;;1.7;1.2;;;;;;;7.15;94.46582;931.5812;;;;
2022/04/06 01:52:31;;;;;;;1.5;1.4;;;;;;;7.16;94.80762;931.613;;;;
2022/04/06 01:55:01;;;;;;;1.7;1.2;;;;;;;7.22;93.84668;931.606;;;;
2022/04/06 01:57:25;;;;;;;3.5;1.2;;;;;;;7.31;92.86914;931.5856;;;;
2022/04/06 01:59:52;;;;;;;1.8;1;;;;;;;7.32;92.22559;931.5398;;;;
2022/04/06 02:02:17;;;;;;;1.7;1.1;;;;;;;7.34;91.93652;931.5503;;;;
2022/04/06 02:04:48;;;;;;;1.3;0.9;;;;;;;7.24;91.97168;931.5967;;;;
2022/04/06 02:07:13;;;;;;;1.3;1;;;;;;;7.19;92.45898;931.5934;;;;
2022/04/06 02:09:40;;;;;;;1.3;0.9;;;;;;;7.19;92.48145;931.5317;;;;
2022/04/06 02:12:06;;;;;;;1.7;0.9;;;;;;;7.09;92.85645;931.4934;;;;
2022/04/06 02:14:32;;;;;;;1;0.8;;;;;;;7.01;92.99707;931.5147;;;;
2022/04/06 02:16:57;;;;;;;1.2;1.1;;;;;;;6.91;94.25488;931.4847;;;;
2022/04/06 02:19:22;;;;;;;1.2;0.9;;;;;;;6.97;94.17871;931.4736;;;;
2022/04/06 02:21:47;;;;;;;1.1;0.9;;;;;;;7.01;93.19238;931.476;;;;
2022/04/06 02:24:13;;;;;;;0.8;0.8;;;;;;;7.06;92.04492;931.4622;;;;
2022/04/06 02:26:41;;;;;;;0.9;0.9;;;;;;;7.01;91.11719;931.4568;;;;
2022/04/06 02:29:06;;;;;;;1.1;0.9;;;;;;;6.96;92.45313;931.4551;;;;
2022/04/06 02:31:34;;;;;;;2;1.1;;;;;;;6.91;93.16797;931.4325;;;;
2022/04/06 02:33:59;;;;;;;1.2;1;;;;;;;6.87;92.81934;931.4305;;;;
2022/04/06 02:36:27;;;;;;;1.2;1;;;;;;;6.88;92.46094;931.4131;;;;
2022/04/06 02:38:52;;;;;;;0.6;0.6;;;;;;;6.88;92.18848;931.4377;;;;
2022/04/06 02:41:19;;;;;;;1.1;1;;;;;;;6.85;91.73926;931.4255;;;;
2022/04/06 02:43:44;;;;;;;1.6;1.1;;;;;;;6.81;91.39258;931.3649;;;;
2022/04/06 02:46:13;;;;;;;1;0.8;;;;;;;6.75;91.39063;931.3717;;;;
2022/04/06 02:48:37;;;;;;;1.5;1;;;;;;;6.68;91.54688;931.3875;;;;
2022/04/06 02:51:04;;;;;;;1;1;;;;;;;6.55;91.80078;931.3214;;;;
2022/04/06 02:53:29;;;;;;;3;1.5;;;;;;;6.45;92.0166;931.3455;;;;
2022/04/06 02:55:56;;;;;;;1.6;1.2;;;;;;;6.36;92.36816;931.2339;;;;
2022/04/06 02:58:21;;;;;;;1.2;1.1;;;;;;;6.16;92.7998;931.3004;;;;
2022/04/06 03:00:48;;;;;;;1.4;0.8;;;;;;;6.07;95.34766;931.2919;;;;
2022/04/06 03:03:13;;;;;;;0.6;0.6;;;;;;;6.07;96.39844;931.2177;;;;
2022/04/06 03:05:41;;;;;;;0.8;0.8;;;;;;;5.93;96.55762;931.2114;;;;
2022/04/06 03:08:06;;;;;;;0.7;0.4;;;;;;;5.86;97.83105;931.1074;;;;
2022/04/06 03:10:32;;;;;;;0.4;0.4;;;;;;;5.96;98.47363;931.1652;;;;
2022/04/06 03:12:57;;;;;;;1.6;0.9;;;;;;;6.02;97.97949;931.1894;;;;
2022/04/06 03:15:27;;;;;;;1.7;0.9;;;;;;;6.11;96.16895;931.178;;;;
2022/04/06 03:17:54;;;;;;;2.2;1.1;;;;;;;6.04;95.61035;931.1699;;;;
2022/04/06 03:20:20;;;;;;;2.9;1.5;;;;;;;5.93;96.02734;931.1577;;;;
2022/04/06 03:22:45;;;;;;;4;1.6;;;;;;;5.94;95.41895;931.123;;;;
2022/04/06 03:25:10;;;;;;;3.3;1.4;;;;;;;5.91;95.46973;931.095;;;;
2022/04/06 03:27:41;;;;;;;4.5;2.3;;;;;;;5.95;94.82227;931.1216;;;;
2022/04/06 03:30:15;;;;;;;1.2;1.1;;;;;;;5.87;94.70508;931.1588;;;;
2022/04/06 03:32:42;;;;;;;3.6;1.3;;;;;;;5.75;95.0293;931.1401;;;;
2022/04/06 03:35:08;;;;;;;6.4;3.9;;;;;;;5.81;94.81543;931.1484;;;;
2022/04/06 03:37:34;;;;;;;4.6;2.7;;;;;;;5.66;95.72949;931.1719;;;;
2022/04/06 03:39:59;;;;;;;4.9;3.1;;;;;;;5.69;96.2207;931.1288;;;;
2022/04/06 03:42:28;;;;;;;6.9;4;;;;;;;5.73;95.16016;931.1241;;;;
2022/04/06 03:44:53;;;;;;;6.2;3.5;;;;;;;5.81;94.54395;931.03;;;;
2022/04/06 03:47:20;;;;;;;3.7;2.9;;;;;;;5.72;93.7793;931.1082;;;;
2022/04/06 03:49:45;;;;;;;3.8;3;;;;;;;5.6;93.57031;931.1003;;;;
2022/04/06 03:52:11;;;;;;;5.4;4.1;;;;;;;5.39;94.23535;931.08;;;;
2022/04/06 03:54:37;;;;;;;6;4.1;;;;;;;5.33;94.41602;931.0798;;;;
2022/04/06 03:57:03;;;;;;;3.7;2.7;;;;;;;5.29;94.10156;931.0427;;;;
2022/04/06 03:59:28;;;;;;;2.2;2;;;;;;;5.19;94.27246;931.0779;;;;
2022/04/06 04:02:33;;;;;;;2;1.8;;;;;;;5.04;95.0957;930.9908;;;;
2022/04/06 04:05:03;;;;;;;1.9;1.7;;;;;;;4.99;95.55664;930.9738;;;;
2022/04/06 04:07:29;;;;;;;2.5;1.7;;;;;;;4.99;95.34473;931.0211;;;;
2022/04/06 04:09:54;;;;;;;1.5;1.4;;;;;;;5;95.76172;930.9747;;;;
2022/04/06 04:12:19;;;;;;;1.5;1.4;;;;;;;5.05;95.22168;930.9703;;;;
2022/04/06 04:14:45;;;;;;;1.2;1.1;;;;;;;4.95;95.62598;930.9879;;;;
2022/04/06 04:17:11;;;;;;;1.5;1.4;;;;;;;4.9;95.93359;930.9554;;;;
2022/04/06 04:19:37;;;;;;;1.2;1.1;;;;;;;4.92;95.89258;930.9637;;;;
2022/04/06 04:22:03;;;;;;;6.1;3.7;;;;;;;4.87;95.99316;930.8769;;;;
2022/04/06 04:24:28;;;;;;;7.1;4.8;;;;;;;4.85;96.62012;930.9175;;;;
2022/04/06 04:26:54;;;;;;;8.1;5;;;;;;;4.9;96.5957;930.86;;;;
2022/04/06 04:29:19;;;;;;;7.8;5;;;;;;;4.93;95.87012;930.8124;;;;
2022/04/06 04:31:46;;;;;;;7;4.6;;;;;;;4.89;95.91797;930.8386;;;;
2022/04/06 04:34:12;;;;;;;3.4;2.3;;;;;;;4.91;96.27148;930.902;;;;
2022/04/06 04:36:38;;;;;;;3.1;2.8;;;;;;;4.88;96.40039;930.8661;;;;
2022/04/06 04:39:03;;;;;;;4;3.3;;;;;;;4.92;96.02734;930.8589;;;;
2022/04/06 04:41:31;;;;;;;3.5;2.9;;;;;;;4.88;95.71289;930.8574;;;;
2022/04/06 04:43:56;;;;;;;3.5;3.2;;;;;;;4.83;95.83594;930.8375;;;;
2022/04/06 04:46:24;;;;;;;2.3;2.1;;;;;;;4.79;95.99707;930.8064;;;;
2022/04/06 04:48:49;;;;;;;2.4;1.9;;;;;;;4.72;96.27539;930.7903;;;;
2022/04/06 04:51:18;;;;;;;1.4;1.3;;;;;;;4.71;97.19531;930.7885;;;;
2022/04/06 04:53:49;;;;;;;1.1;1;;;;;;;4.86;96.76855;930.7813;;;;
2022/04/06 04:56:15;;;;;;;1.5;1;;;;;;;5.07;95.42871;930.7316;;;;
2022/04/06 04:58:39;;;;;;;0.9;0.8;;;;;;;5.11;94.29785;930.8326;;;;
2022/04/06 05:01:05;;;;;;;1.7;0.9;;;;;;;4.96;94.02734;930.652;;;;
2022/04/06 05:03:30;;;;;;;0.9;0.8;;;;;;;4.8;94.6582;930.7988;;;;
2022/04/06 05:05:58;;;;;;;5.2;4;;;;;;;4.62;95.74414;930.7954;;;;
2022/04/06 05:08:22;;;;;;;5.8;3.2;;;;;;;4.56;96.30469;930.8097;;;;
2022/04/06 05:10:49;;;;;;;3.3;2.7;;;;;;;4.61;96.35059;930.7313;;;;
2022/04/06 05:13:17;;;;;;;3.3;2.5;;;;;;;4.64;96.00977;930.7714;;;;
2022/04/06 05:15:41;;;;;;;4;3.2;;;;;;;4.67;95.06934;930.7427;;;;
2022/04/06 05:18:07;;;;;;;5.2;3.8;;;;;;;4.64;95.08594;930.7776;;;;
2022/04/06 05:20:37;;;;;;;3.1;2.7;;;;;;;4.55;95.00781;930.7645;;;;
2022/04/06 05:22:59;;;;;;;1.8;1.7;;;;;;;4.5;95.53613;930.7587;;;;
2022/04/06 05:25:27;;;;;;;1.4;1.3;;;;;;;4.31;96.85547;930.7869;;;;
2022/04/06 05:27:53;;;;;;;1.3;1.2;;;;;;;4.33;97.41016;930.748;;;;
2022/04/06 05:30:22;;;;;;;1.4;1.3;;;;;;;4.45;97.25977;930.8311;;;;
2022/04/06 05:32:47;;;;;;;3.3;1.7;;;;;;;4.58;96.76074;930.8566;;;;
2022/04/06 05:35:16;;;;;;;2.9;1.8;;;;;;;4.79;96.09863;930.801;;;;
2022/04/06 05:37:45;;;;;;;3.2;2.3;;;;;;;4.85;94.94043;930.9009;;;;
2022/04/06 05:40:10;;;;;;;4.1;3;;;;;;;4.85;95.07617;930.8269;;;;
2022/04/06 05:42:40;;;;;;;2.8;2.3;;;;;;;5.01;95.8877;930.8758;;;;
2022/04/06 05:45:06;;;;;;;2.2;1.9;;;;;;;5.67;95.6748;930.8782;;;;
2022/04/06 05:47:32;;;;;;;1.7;1.6;;;;;;;6.75;90.34863;930.8321;;;;
2022/04/06 05:49:57;;;;;;;1.6;1.5;;;;;;;7.54;84.9375;930.8357;;;;
2022/04/06 05:52:27;;;;;;;1.6;1.5;;;;;;;8.9;77.23242;930.8438;;;;
2022/04/06 05:54:52;;;;;;;1.4;1.3;;;;;;;10.69;71.69336;930.8303;;;;
2022/04/06 05:57:18;;;;;;;1.6;1.4;;;;;;;12.08;65.14063;930.6841;;;;
2022/04/06 05:59:44;;;;;;;2.5;1.7;;;;;;;12.66;62.7832;930.7456;;;;
2022/04/06 06:02:12;;;;;;;1.8;1.3;;;;;;;13.06;61.06152;930.7614;;;;
2022/04/06 06:04:38;;;;;;;1.6;1.1;;;;;;;12.85;60.55078;930.7453;;;;
2022/04/06 06:07:05;;;;;;;1.1;1.1;;;;;;;11.8;63.58789;930.6164;;;;
2022/04/06 06:09:28;;;;;;;1.1;1;;;;;;;11.3;65.79004;930.7249;;;;
2022/04/06 06:11:56;;;;;;;1.5;1.4;;;;;;;11.53;65.62012;930.7366;;;;
2022/04/06 06:14:21;;;;;;;2.9;2;;;;;;;11.95;64.7334;930.7352;;;;
2022/04/06 06:16:49;;;;;;;3.9;2.5;;;;;;;12.77;61.06738;930.7131;;;;
2022/04/06 06:19:14;;;;;;;6.7;3.7;;;;;;;13.05;60.64746;930.6976;;;;
2022/04/06 06:21:40;;;;;;;10.1;4.6;;;;;;;12.92;60.33008;930.6735;;;;
2022/04/06 06:24:06;;;;;;;3.8;2.5;;;;;;;13.99;57.56836;930.6714;;;;
2022/04/06 06:26:33;;;;;;;2.4;1.7;;;;;;;12.97;60.34863;930.6608;;;;
2022/04/06 06:28:58;;;;;;;1;0.9;;;;;;;12.11;62.14355;930.5801;;;;
2022/04/06 06:31:25;;;;;;;1.3;1.2;;;;;;;14.26;57.33789;930.5811;;;;
2022/04/06 06:33:50;;;;;;;3;1.8;;;;;;;13.14;60.80762;930.6031;;;;
2022/04/06 06:36:15;;;;;;;5.2;3;;;;;;;12.84;60.78906;930.5969;;;;
2022/04/06 06:38:42;;;;;;;1.8;1;;;;;;;12.36;60.2998;930.574;;;;
2022/04/06 06:41:07;;;;;;;1.9;1.2;;;;;;;11.79;63.94238;930.4625;;;;
2022/04/06 06:43:36;;;;;;;1.7;1.2;;;;;;;13.28;61.31055;930.5499;;;;
2022/04/06 06:46:05;;;;;;;1.4;1.2;;;;;;;13.6;58.99805;930.4785;;;;
2022/04/06 06:48:30;;;;;;;0.6;0.6;;;;;;;13.96;56.66504;930.4263;;;;
2022/04/06 06:50:59;;;;;;;0.6;0.6;;;;;;;14;56.1416;930.4072;;;;
2022/04/06 06:53:24;;;;;;;0.5;0.5;;;;;;;13.52;58.90625;930.4253;;;;
2022/04/06 06:55:51;;;;;;;0.7;0.7;;;;;;;14.05;55.54883;930.3627;;;;
2022/04/06 11:01:48;;;;;;;0.9;0.7;;;;;;;28;26.26367;926.889;;;;
2022/04/06 11:04:13;;;;;;;0.2;0.2;;;;;;;27.48;28.0957;926.8144;;;;
2022/04/06 11:06:38;;;;;;;0.3;0.2;;;;;;;26.34;28.03711;926.7445;;;;
2022/04/06 11:11:30;;;;;;;0.2;0.2;;;;;;;25.15;30.66504;926.7081;;;;
2022/04/06 11:13:55;;;;;;;0.4;0.3;;;;;;;25.52;30.62012;926.6498;;;;
2022/04/06 11:27:54;;;;;;;0.3;0.3;;;;;;;25.03;31.23535;926.5375;;;;
2022/04/06 11:32:33;;;;;;;0.2;0.2;;;;;;;25.23;31.83984;926.4185;;;;
2022/04/06 11:34:58;;;;;;;0.3;0.3;;;;;;;25.44;30.76758;926.3094;;;;
2022/04/06 11:37:23;;;;;;;0.2;0.2;;;;;;;25.11;31.68848;926.3272;;;;
2022/04/06 11:39:54;;;;;;;0.2;0.2;;;;;;;25.4;31.00195;926.2933;;;;
2022/04/06 11:42:21;;;;;;;0.5;0.4;;;;;;;25.67;30.7832;926.2831;;;;
2022/04/06 11:44:45;;;;;;;0.7;0.3;;;;;;;25.63;30.46191;926.2024;;;;
2022/04/06 11:47:10;;;;;;;0.5;0.3;;;;;;;25.96;30.21191;926.2181;;;;
2022/04/06 11:49:38;;;;;;;0.4;0.3;;;;;;;26.44;29.83105;926.1714;;;;
2022/04/06 11:52:03;;;;;;;0.3;0.3;;;;;;;27.25;28.87695;926.1276;;;;
2022/04/06 11:54:31;;;;;;;0.3;0.3;;;;;;;26.09;31.37988;925.9994;;;;
2022/04/06 11:56:56;;;;;;;0.5;0.5;;;;;;;26.17;29.74121;925.9755;;;;
2022/04/06 11:59:23;;;;;;;0.2;0.2;;;;;;;26.06;30.21973;925.9712;;;;
2022/04/06 12:01:48;;;;;;;2.1;0.4;;;;;;;25.44;32.43359;925.9289;;;;
2022/04/06 12:04:18;;;;;;;1.2;0.4;;;;;;;24.98;32.01074;925.8605;;;;
2022/04/06 12:06:41;;;;;;;0.6;0.3;;;;;;;24.54;32.85059;925.8797;;;;
2022/04/06 12:09:08;;;;;;;0.7;0.4;;;;;;;24.55;32.7334;925.7094;;;;
2022/04/06 12:11:33;;;;;;;1.6;0.6;;;;;;;24.79;32.18555;925.7752;;;;
2022/04/06 12:13:58;;;;;;;0.4;0.4;;;;;;;24.22;33.22852;925.6486;;;;
2022/04/06 12:16:30;;;;;;;0.5;0.5;;;;;;;25.27;31.65332;925.7274;;;;
2022/04/06 12:18:58;;;;;;;0.2;0.2;;;;;;;26.16;30.33203;925.6288;;;;
2022/04/06 12:21:23;;;;;;;0.8;0.3;;;;;;;25.54;31.25879;925.5402;;;;
2022/04/06 12:23:51;;;;;;;0.5;0.4;;;;;;;25.25;32.06543;925.5587;;;;
2022/04/06 12:26:16;;;;;;;1.1;0.3;;;;;;;24.75;32.33594;925.4297;;;;
2022/04/06 12:28:45;;;;;;;0.6;0.3;;;;;;;23.4;35.36523;925.4341;;;;
2022/04/06 12:31:10;;;;;;;0.4;0.3;;;;;;;23.56;34.68457;925.444;;;;
2022/04/06 12:33:34;;;;;;;0.3;0.3;;;;;;;23.92;34.85449;925.4736;;;;
2022/04/06 12:36:06;;;;;;;0.8;0.3;;;;;;;23.98;34.7998;925.367;;;;
2022/04/06 12:38:31;;;;;;;0.7;0.4;;;;;;;23.72;34.83789;925.4219;;;;
2022/04/06 12:41:03;;;;;;;0.6;0.2;;;;;;;23.02;34.67773;925.442;;;;
2022/04/06 12:43:29;;;;;;;2.5;0.6;;;;;;;22.78;35.79785;925.3934;;;;
2022/04/06 12:45:55;;;;;;;1;0.4;;;;;;;22.66;35.82324;925.3469;;;;
2022/04/06 12:48:24;;;;;;;0.7;0.5;;;;;;;23.43;36.02637;925.1449;;;;
2022/04/06 12:50:49;;;;;;;1.2;0.3;;;;;;;24.05;34.42871;925.1032;;;;
2022/04/06 12:53:20;;;;;;;2;0.7;;;;;;;23.7;35.77734;925.2173;;;;
2022/04/06 12:55:42;;;;;;;1.2;0.7;;;;;;;24.08;35.57324;925.2564;;;;
2022/04/06 12:58:07;;;;;;;0.7;0.4;;;;;;;24.65;34.22656;925.2162;;;;
2022/04/06 13:00:32;;;;;;;1.2;0.4;;;;;;;23.93;34.19531;925.1025;;;;
2022/04/06 13:03:02;;;;;;;0.7;0.4;;;;;;;22.18;36.51074;925.2039;;;;
2022/04/06 13:05:31;;;;;;;1.1;0.3;;;;;;;21.28;38.32129;925.23;;;;
2022/04/06 13:07:56;;;;;;;2.6;0.5;;;;;;;20.62;41.55957;925.1725;;;;
2022/04/06 13:10:24;;;;;;;0.8;0.3;;;;;;;20.79;40.44238;925.1171;;;;
2022/04/06 13:12:48;;;;;;;2.1;0.5;;;;;;;20.45;40.46875;925.0938;;;;
2022/04/06 13:15:19;;;;;;;0.4;0.4;;;;;;;20.12;41.05664;925.0347;;;;
2022/04/06 13:17:44;;;;;;;0.7;0.5;;;;;;;19.94;41.2041;925.0695;;;;
2022/04/06 13:20:18;;;;;;;0.7;0.4;;;;;;;19.59;41.71875;925.0129;;;;
2022/04/06 13:22:45;;;;;;;0.2;0.2;;;;;;;19.1;43.55957;924.9791;;;;
2022/04/06 13:25:10;;;;;;;0.7;0.5;;;;;;;18.77;43.39941;925.0044;;;;
2022/04/06 13:27:43;;;;;;;0.3;0.3;;;;;;;18.84;44.06836;924.9993;;;;
2022/04/06 13:30:08;;;;;;;1.4;0.6;;;;;;;18.92;43.7041;924.9498;;;;
2022/04/06 13:32:38;;;;;;;0.4;0.4;;;;;;;18.83;44.39355;924.9329;;;;
2022/04/06 13:35:09;;;;;;;1;0.5;;;;;;;18.73;44.81445;924.8822;;;;
2022/04/06 13:37:40;;;;;;;1.3;0.5;;;;;;;18.44;45.5625;924.8972;;;;
2022/04/06 13:40:14;;;;;;;0.4;0.3;;;;;;;18.2;46.02637;924.9144;;;;
2022/04/06 13:42:45;;;;;;;1.2;0.4;;;;;;;17.97;46.28125;924.9172;;;;
2022/04/06 13:45:16;;;;;;;0.3;0.3;;;;;;;18.02;46.73926;924.752;;;;
2022/04/06 13:47:45;;;;;;;0.6;0.4;;;;;;;17.7;47.19238;924.8458;;;;
2022/04/06 13:50:10;;;;;;;1.6;0.4;;;;;;;17.61;48.32129;924.8389;;;;
2022/04/06 13:52:41;;;;;;;0.8;0.6;;;;;;;17.59;47.09961;924.7988;;;;
2022/04/06 13:55:21;;;;;;;0.8;0.5;;;;;;;17.49;47.80762;924.8122;;;;
2022/04/06 13:57:39;;;;;;;0.3;0.3;;;;;;;17.44;48.19629;924.7844;;;;
2022/04/06 14:00:04;;;;;;;1.2;0.5;;;;;;;17.54;48.75391;924.7634;;;;
2022/04/06 14:02:30;;;;;;;0.6;0.6;;;;;;;17.33;49.10156;924.7045;;;;
2022/04/06 14:05:01;;;;;;;1.7;0.4;;;;;;;17.3;48.18164;924.6713;;;;
2022/04/06 14:07:24;;;;;;;0.8;0.4;;;;;;;17.23;49.99512;924.7841;;;;
2022/04/06 14:09:51;;;;;;;1.9;0.5;;;;;;;17.37;48.29395;924.7175;;;;
2022/04/06 14:12:16;;;;;;;0.4;0.4;;;;;;;17.49;48.17969;924.7148;;;;
2022/04/06 14:14:46;;;;;;;0.8;0.5;;;;;;;17.59;48.08594;924.7528;;;;
2022/04/06 14:17:11;;;;;;;1.1;0.5;;;;;;;17.56;48.98926;924.7241;;;;
2022/04/06 14:20:21;;;;;;;0.8;0.6;;;;;;;17.7;47.55176;924.7299;;;;
2022/04/06 14:23:31;;;;;;;0.6;0.5;;;;;;;17.43;48.98438;924.6834;;;;
2022/04/06 14:26:42;;;;;;;0.9;0.5;;;;;;;17.75;48.99707;924.7752;;;;
2022/04/06 14:29:53;;;;;;;0.7;0.5;;;;;;;17.79;48.31738;924.717;;;;
2022/04/06 14:33:03;;;;;;;1.9;0.5;;;;;;;17.89;49.22266;924.7271;;;;
2022/04/06 14:36:12;;;;;;;0.8;0.4;;;;;;;17.62;49.11133;924.6641;;;;
2022/04/06 14:39:22;;;;;;;2;0.8;;;;;;;17.76;48.88379;924.67;;;;
2022/04/06 14:42:32;;;;;;;1.6;0.6;;;;;;;17.85;49.37988;924.613;;;;
2022/04/06 14:45:41;;;;;;;0.7;0.5;;;;;;;18.08;49.20898;924.673;;;;
2022/04/06 14:48:52;;;;;;;0.7;0.6;;;;;;;18.17;50.25293;924.5411;;;;
2022/04/06 14:52:02;;;;;;;1.1;0.5;;;;;;;18.29;49.23242;924.6268;;;;
2022/04/06 14:55:11;;;;;;;0.6;0.6;;;;;;;17.8;49.08398;924.5664;;;;
2022/04/06 14:58:21;;;;;;;0.5;0.4;;;;;;;17.52;50.01563;924.6164;;;;
2022/04/06 15:01:31;;;;;;;0.8;0.5;;;;;;;17.31;50.30469;924.6256;;;;
2022/04/06 15:03:57;;;;;;;0.5;0.5;;;;;;;17.12;50.85156;924.5949;;;;
2022/04/06 15:06:22;;;;;;;0.5;0.5;;;;;;;17.14;51.25977;924.5383;;;;
2022/04/06 15:08:47;;;;;;;2.4;0.5;;;;;;;17.13;50.19238;924.5773;;;;
2022/04/06 15:11:16;;;;;;;2.6;0.9;;;;;;;17.45;50.59961;924.5505;;;;
2022/04/06 15:13:41;;;;;;;0.6;0.6;;;;;;;17.47;49.8252;924.5359;;;;
2022/04/06 15:16:08;;;;;;;1;0.6;;;;;;;17.54;49.46191;924.5673;;;;
2022/04/06 15:18:33;;;;;;;1.5;0.6;;;;;;;17.58;49.2002;924.5421;;;;
2022/04/06 15:21:01;;;;;;;0.6;0.5;;;;;;;17.51;49.73633;924.4945;;;;
2022/04/06 15:23:26;;;;;;;0.9;0.6;;;;;;;17.63;48.81055;924.4867;;;;
2022/04/06 15:25:52;;;;;;;1.1;0.7;;;;;;;17.49;49.17773;924.5142;;;;
2022/04/06 15:28:17;;;;;;;1;0.6;;;;;;;17.41;49.45898;924.464;;;;
2022/04/06 15:30:45;;;;;;;0.6;0.6;;;;;;;17.21;49.44727;924.3591;;;;
2022/04/06 15:33:11;;;;;;;0.9;0.6;;;;;;;17.15;50.1709;924.3959;;;;
2022/04/06 15:38:07;;;;;;;0.6;0.5;;;;;;;16.43;51.91699;924.4203;;;;
2022/04/06 15:40:37;;;;;;;2.2;0.6;;;;;;;16.2;52.71191;924.4178;;;;
2022/04/06 15:43:02;;;;;;;0.9;0.6;;;;;;;16.31;53.26855;924.4169;;;;
2022/04/06 15:45:33;;;;;;;1;0.6;;;;;;;16.34;52.91309;924.4648;;;;
2022/04/06 15:48:01;;;;;;;0.7;0.5;;;;;;;16.28;52.89551;924.4194;;;;
2022/04/06 15:50:27;;;;;;;1.1;0.8;;;;;;;16.25;54.47559;924.4897;;;;
2022/04/06 15:52:54;;;;;;;1.3;0.6;;;;;;;16.06;57.52832;924.4908;;;;
2022/04/06 15:55:19;;;;;;;0.6;0.6;;;;;;;15.89;59.31934;924.5366;;;;
2022/04/06 15:57:50;;;;;;;0.6;0.6;;;;;;;15.9;59.91211;924.6003;;;;
2022/04/06 16:00:16;;;;;;;0.5;0.5;;;;;;;15.83;61.18555;924.5844;;;;
2022/04/06 16:02:41;;;;;;;1;0.8;;;;;;;15.54;63.8125;924.713;;;;
2022/04/06 16:05:06;;;;;;;3.8;1.7;;;;;;;14.94;68.67285;924.736;;;;
2022/04/06 16:07:32;;;;;;;3.2;2.1;;;;;;;14.54;71.89258;924.8204;;;;
2022/04/06 16:10:05;;;;;;;7;3.5;;;;;;;14.49;74.24609;924.8819;;;;
2022/04/06 16:12:33;;;;;;;4.1;1.7;;;;;;;14.56;74.79004;924.9559;;;;
2022/04/06 16:15:06;;;;;;;2.5;2;;;;;;;14.6;74.55371;924.9981;;;;
2022/04/06 16:17:33;;;;;;;2;1.1;;;;;;;14.54;74.38379;925.0309;;;;
2022/04/06 16:19:58;;;;;;;0.9;0.6;;;;;;;14.31;72.31641;925.1142;;;;
2022/04/06 16:22:27;;;;;;;1.1;0.9;;;;;;;14.34;72.21875;925.1365;;;;
2022/04/06 16:24:56;;;;;;;1.4;0.7;;;;;;;14.04;73.57227;925.1505;;;;
2022/04/06 16:27:29;;;;;;;2.8;1.3;;;;;;;13.85;77.63574;925.0628;;;;
2022/04/06 16:30:00;;;;;;;6.1;2.7;;;;;;;13.75;80.39063;925.1633;;;;
2022/04/06 16:32:25;;;;;;;5.2;2.7;;;;;;;13.4;81.00391;925.1733;;;;
2022/04/06 16:34:54;;;;;;;3.5;2.2;;;;;;;13.51;80.77246;925.0694;;;;
2022/04/06 16:37:19;;;;;;;6.4;4.2;;;;;;;13.28;83.98047;925.1072;;;;
2022/04/06 16:39:45;;;;;;;22.2;20.6;;;;;;;;;;;;;
2022/04/06 16:42:12;;;;;;;3.5;2.6;;;;;;;;;;;;;
2022/04/06 16:44:37;;;;;;;4.6;3.5;;;;;;;;;;;;;
2022/04/06 16:47:03;;;;;;;3.2;2.4;;;;;;;;;;;;;
2022/04/06 16:52:39;;;;;;;3.3;2.4;;;;;;;;;;;;;
2022/04/06 16:54:19;;;;;;;6;3.7;;;;;;;;;;;;;
2022/04/06 16:56:47;;;;;;;5.8;3.4;;;;;;;;;;;;;
2022/04/06 16:59:12;;;;;;;4;2.4;;;;;;;;;;;;;
2022/04/06 17:01:38;;;;;;;4;2.3;;;;;;;;;;;;;
2022/04/06 17:04:04;;;;;;;3.4;2.5;;;;;;;;;;;;;
2022/04/06 17:06:30;;;;;;;5;2.7;;;;;;;;;;;;;
2022/04/06 17:08:55;;;;;;;4.8;3.1;;;;;;;;;;;;;
2022/04/06 17:11:21;;;;;;;4.8;2.7;;;;;;;;;;;;;
2022/04/06 17:13:46;;;;;;;3.2;2.4;;;;;;;;;;;;;
2022/04/06 17:16:11;;;;;;;4.6;2.8;;;;;;;;;;;;;
2022/04/06 17:18:37;;;;;;;4.8;3.2;;;;;;;;;;;;;
2022/04/06 17:21:03;;;;;;;6.5;3.8;;;;;;;;;;;;;
2022/04/06 17:23:30;;;;;;;6.5;3.1;;;;;;;;;;;;;
2022/04/06 17:25:54;;;;;;;5.1;2.8;;;;;;;;;;;;;
2022/04/06 17:28:19;;;;;;;5.8;3.4;;;;;;;;;;;;;
2022/04/06 17:30:46;;;;;;;4.8;3.3;;;;;;;;;;;;;
2022/04/06 17:33:11;;;;;;;4;2.9;;;;;;;;;;;;;
2022/04/06 17:35:37;;;;;;;4.5;3.3;;;;;;;;;;;;;
2022/04/06 17:38:02;;;;;;;5.6;2.8;;;;;;;;;;;;;
2022/04/06 17:40:30;;;;;;;4.6;2.8;;;;;;;;;;;;;
2022/04/06 17:42:53;;;;;;;3.9;2.4;;;;;;;;;;;;;
2022/04/06 17:45:19;;;;;;;4.2;2.6;;;;;;;;;;;;;
2022/04/06 17:47:45;;;;;;;3.2;2.8;;;;;;;;;;;;;
2022/04/06 17:50:14;;;;;;;3.9;3;;;;;;;;;;;;;
2022/04/06 17:52:41;;;;;;;3.7;2.5;;;;;;;;;;;;;
2022/04/06 17:55:06;;;;;;;3.9;2.7;;;;;;;;;;;;;
2022/04/06 17:57:33;;;;;;;5.8;5.2;;;;;;;;;;;;;
2022/04/06 17:59:58;;;;;;;4.8;3.7;;;;;;;;;;;;;
2022/04/06 18:02:23;;;;;;;5.5;4.9;;;;;;;;;;;;;
2022/04/06 18:04:48;;;;;;;4.5;3.5;;;;;;;;;;;;;
2022/04/06 18:07:15;;;;;;;4.8;3.1;;;;;;;;;;;;;
2022/04/06 18:09:41;;;;;;;5.6;4.7;;;;;;;;;;;;;
2022/04/06 18:14:32;;;;;;;3.4;2.8;;;;;;;;;;;;;
2022/04/06 18:17:00;;;;;;;3.7;2.9;;;;;;;;;;;;;
2022/04/06 18:19:25;;;;;;;3.7;2.9;;;;;;;;;;;;;
2022/04/06 18:21:50;;;;;;;3.9;2.8;;;;;;;;;;;;;
2022/04/06 18:24:15;;;;;;;4.2;2.5;;;;;;;;;;;;;
2022/04/06 18:26:44;;;;;;;2.7;2.3;;;;;;;;;;;;;
2022/04/06 18:29:08;;;;;;;3.8;2.7;;;;;;;;;;;;;
2022/04/06 18:31:33;;;;;;;2.3;2.1;;;;;;;;;;;;;
2022/04/06 18:33:58;;;;;;;2.3;1.9;;;;;;;;;;;;;
2022/04/06 18:36:26;;;;;;;2;1.7;;;;;;;;;;;;;
2022/04/06 18:38:49;;;;;;;3;1.6;;;;;;;;;;;;;
2022/04/06 18:41:15;;;;;;;2.2;1.9;;;;;;;;;;;;;
2022/04/06 18:43:41;;;;;;;2.4;1.8;;;;;;;;;;;;;
2022/04/06 18:46:07;;;;;;;2.1;1.8;;;;;;;;;;;;;
2022/04/06 18:48:32;;;;;;;2;1.4;;;;;;;;;;;;;
2022/04/06 18:50:59;;;;;;;3.5;2;;;;;;;;;;;;;
2022/04/06 18:53:24;;;;;;;1.9;1.8;;;;;;;;;;;;;
2022/04/06 18:55:50;;;;;;;2.2;1.8;;;;;;;;;;;;;
2022/04/06 18:58:24;;;;;;;2.4;2.2;;;;;;;;;;;;;
2022/04/06 19:00:42;;;;;;;2.2;1.9;;;;;;;;;;;;;
2022/04/06 19:03:06;;;;;;;2.1;1.9;;;;;;;;;;;;;
2022/04/06 19:05:33;;;;;;;2.8;2.1;;;;;;;;;;;;;
2022/04/06 19:08:01;;;;;;;3.8;2.9;;;;;;;;;;;;;
2022/04/06 19:10:29;;;;;;;4.1;2.8;;;;;;;;;;;;;
2022/04/06 19:12:56;;;;;;;3;2.7;;;;;;;;;;;;;
2022/04/06 19:15:24;;;;;;;4.3;3.1;;;;;;;;;;;;;
2022/04/06 19:17:46;;;;;;;3.3;3;;;;;;;;;;;;;
2022/04/06 19:20:15;;;;;;;3.3;2.8;;;;;;;;;;;;;
2022/04/06 19:22:39;;;;;;;3.4;2.4;;;;;;;;;;;;;
2022/04/06 19:25:05;;;;;;;2.6;2.1;;;;;;;;;;;;;
2022/04/06 19:27:30;;;;;;;2.9;2.3;;;;;;;;;;;;;
2022/04/06 19:29:55;;;;;;;2.5;2.1;;;;;;;;;;;;;
2022/04/06 19:32:20;;;;;;;4.7;2.7;;;;;;;;;;;;;
2022/04/06 19:34:47;;;;;;;3.4;3;;;;;;;;;;;;;
2022/04/06 19:37:13;;;;;;;3.7;2.7;;;;;;;;;;;;;
2022/04/06 19:39:39;;;;;;;3.6;2.9;;;;;;;;;;;;;
2022/04/06 19:42:04;;;;;;;5.2;4.4;;;;;;;;;;;;;
2022/04/06 19:44:31;;;;;;;5.2;3.7;;;;;;;;;;;;;
2022/04/06 19:46:56;;;;;;;3.8;2.4;;;;;;;;;;;;;
2022/04/06 19:49:22;;;;;;;3.3;2.3;;;;;;;;;;;;;
2022/04/06 19:51:47;;;;;;;4.2;2.6;;;;;;;;;;;;;
2022/04/06 19:54:13;;;;;;;10.7;4.7;;;;;;;;;;;;;
2022/04/06 19:56:39;;;;;;;6.8;3.5;;;;;;;;;;;;;
2022/04/06 19:59:04;;;;;;;6.8;4.1;;;;;;;;;;;;;
2022/04/06 20:01:31;;;;;;;4.7;3.5;;;;;;;;;;;;;
2022/04/06 20:03:57;;;;;;;4.4;3.3;;;;;;;;;;;;;
2022/04/06 20:06:21;;;;;;;5.3;4.3;;;;;;;;;;;;;
2022/04/06 20:08:48;;;;;;;4.4;4;;;;;;;;;;;;;
2022/04/06 20:11:13;;;;;;;5.2;3.3;;;;;;;;;;;;;